sensor_id;sensor_type;location;lat;lon;timestamp;P1;durP1;ratioP1;P2;durP2;ratioP2
50417;SDS011;36346;48.280;14.292;2023-02-03T00:00:32;4.70;;;4.70;;
50417;SDS011;36346;48.280;14.292;2023-02-03T00:03:00;4.61;;;4.61;;
50417;SDS011;36346;48.280;14.292;2023-02-03T00:05:28;4.62;;;4.62;;
50417;SDS011;36346;48.280;14.292;2023-02-03T00:08:22;4.43;;;4.43;;
50417;SDS011;36346;48.280;14.292;2023-02-03T00:11:14;4.87;;;4.87;;
50417;SDS011;36346;48.280;14.292;2023-02-03T00:13:42;4.65;;;4.65;;
50417;SDS011;36346;48.280;14.292;2023-02-03T00:16:11;4.42;;;4.42;;
50417;SDS011;36346;48.280;14.292;2023-02-03T00:18:40;5.10;;;5.10;;
50417;SDS011;36346;48.280;14.292;2023-02-03T00:21:07;4.88;;;4.88;;
50417;SDS011;36346;48.280;14.292;2023-02-03T00:23:35;5.22;;;5.22;;
50417;SDS011;36346;48.280;14.292;2023-02-03T00:26:07;5.30;;;5.30;;
50417;SDS011;36346;48.280;14.292;2023-02-03T00:29:00;5.31;;;5.31;;
50417;SDS011;36346;48.280;14.292;2023-02-03T00:31:28;5.11;;;5.11;;
50417;SDS011;36346;48.280;14.292;2023-02-03T00:33:56;5.35;;;5.35;;
50417;SDS011;36346;48.280;14.292;2023-02-03T00:36:25;5.16;;;5.16;;
50417;SDS011;36346;48.280;14.292;2023-02-03T00:38:53;5.42;;;5.42;;
50417;SDS011;36346;48.280;14.292;2023-02-03T00:41:21;5.49;;;5.49;;
50417;SDS011;36346;48.280;14.292;2023-02-03T00:43:53;5.28;;;5.28;;
50417;SDS011;36346;48.280;14.292;2023-02-03T00:46:21;5.40;;;5.40;;
50417;SDS011;36346;48.280;14.292;2023-02-03T00:48:48;5.70;;;5.70;;
50417;SDS011;36346;48.280;14.292;2023-02-03T00:51:18;5.61;;;5.61;;
50417;SDS011;36346;48.280;14.292;2023-02-03T00:53:48;5.69;;;5.69;;
50417;SDS011;36346;48.280;14.292;2023-02-03T00:56:16;6.01;;;6.01;;
50417;SDS011;36346;48.280;14.292;2023-02-03T00:58:44;6.44;;;6.44;;
50417;SDS011;36346;48.280;14.292;2023-02-03T01:01:12;6.79;;;6.79;;
50417;SDS011;36346;48.280;14.292;2023-02-03T01:03:40;7.32;;;7.32;;
50417;SDS011;36346;48.280;14.292;2023-02-03T01:06:10;7.01;;;7.01;;
50417;SDS011;36346;48.280;14.292;2023-02-03T01:08:43;7.92;;;7.92;;
50417;SDS011;36346;48.280;14.292;2023-02-03T01:11:23;8.59;;;8.59;;
50417;SDS011;36346;48.280;14.292;2023-02-03T01:13:54;8.93;;;8.93;;
50417;SDS011;36346;48.280;14.292;2023-02-03T01:16:24;9.53;;;9.53;;
50417;SDS011;36346;48.280;14.292;2023-02-03T01:18:55;9.83;;;9.83;;
50417;SDS011;36346;48.280;14.292;2023-02-03T01:21:25;9.58;;;9.58;;
50417;SDS011;36346;48.280;14.292;2023-02-03T01:23:55;10.64;;;10.64;;
50417;SDS011;36346;48.280;14.292;2023-02-03T01:26:23;9.98;;;9.98;;
50417;SDS011;36346;48.280;14.292;2023-02-03T01:28:52;10.74;;;10.74;;
50417;SDS011;36346;48.280;14.292;2023-02-03T01:31:23;9.89;;;9.89;;
50417;SDS011;36346;48.280;14.292;2023-02-03T01:33:57;10.39;;;10.38;;
50417;SDS011;36346;48.280;14.292;2023-02-03T01:36:30;10.50;;;10.50;;
50417;SDS011;36346;48.280;14.292;2023-02-03T01:39:02;10.20;;;10.20;;
50417;SDS011;36346;48.280;14.292;2023-02-03T01:41:32;10.45;;;10.37;;
50417;SDS011;36346;48.280;14.292;2023-02-03T01:47:10;10.48;;;10.47;;
50417;SDS011;36346;48.280;14.292;2023-02-03T01:52:29;10.66;;;10.66;;
50417;SDS011;36346;48.280;14.292;2023-02-03T01:55:25;10.46;;;10.46;;
50417;SDS011;36346;48.280;14.292;2023-02-03T01:57:59;10.77;;;10.77;;
50417;SDS011;36346;48.280;14.292;2023-02-03T02:00:31;11.13;;;11.13;;
50417;SDS011;36346;48.280;14.292;2023-02-03T02:03:00;11.31;;;11.13;;
50417;SDS011;36346;48.280;14.292;2023-02-03T02:05:31;11.20;;;11.13;;
50417;SDS011;36346;48.280;14.292;2023-02-03T02:08:02;11.06;;;11.05;;
50417;SDS011;36346;48.280;14.292;2023-02-03T02:10:31;9.86;;;9.86;;
50417;SDS011;36346;48.280;14.292;2023-02-03T02:13:00;10.33;;;10.33;;
50417;SDS011;36346;48.280;14.292;2023-02-03T02:15:43;10.11;;;10.11;;
50417;SDS011;36346;48.280;14.292;2023-02-03T02:22:19;8.96;;;8.96;;
50417;SDS011;36346;48.280;14.292;2023-02-03T02:36:21;5.82;;;5.82;;
50417;SDS011;36346;48.280;14.292;2023-02-03T02:39:17;5.85;;;5.85;;
50417;SDS011;36346;48.280;14.292;2023-02-03T02:41:55;4.95;;;4.95;;
50417;SDS011;36346;48.280;14.292;2023-02-03T02:44:52;3.81;;;3.81;;
50417;SDS011;36346;48.280;14.292;2023-02-03T02:47:53;3.78;;;3.78;;
50417;SDS011;36346;48.280;14.292;2023-02-03T02:51:13;3.39;;;3.39;;
50417;SDS011;36346;48.280;14.292;2023-02-03T02:53:45;3.54;;;3.54;;
50417;SDS011;36346;48.280;14.292;2023-02-03T02:56:16;3.50;;;3.50;;
50417;SDS011;36346;48.280;14.292;2023-02-03T02:58:50;3.59;;;3.59;;
50417;SDS011;36346;48.280;14.292;2023-02-03T03:01:21;4.11;;;4.11;;
50417;SDS011;36346;48.280;14.292;2023-02-03T03:03:51;4.04;;;4.04;;
50417;SDS011;36346;48.280;14.292;2023-02-03T03:06:30;4.02;;;4.02;;
50417;SDS011;36346;48.280;14.292;2023-02-03T03:09:14;3.93;;;3.93;;
50417;SDS011;36346;48.280;14.292;2023-02-03T03:11:58;4.17;;;4.17;;
50417;SDS011;36346;48.280;14.292;2023-02-03T03:14:34;3.94;;;3.94;;
50417;SDS011;36346;48.280;14.292;2023-02-03T03:17:09;3.89;;;3.89;;
50417;SDS011;36346;48.280;14.292;2023-02-03T03:19:46;3.91;;;3.91;;
50417;SDS011;36346;48.280;14.292;2023-02-03T03:22:19;3.93;;;3.93;;
50417;SDS011;36346;48.280;14.292;2023-02-03T03:25:02;4.22;;;4.22;;
50417;SDS011;36346;48.280;14.292;2023-02-03T03:27:40;4.18;;;4.18;;
50417;SDS011;36346;48.280;14.292;2023-02-03T03:30:19;4.59;;;4.59;;
50417;SDS011;36346;48.280;14.292;2023-02-03T03:32:52;4.71;;;4.71;;
50417;SDS011;36346;48.280;14.292;2023-02-03T03:35:58;4.66;;;4.66;;
50417;SDS011;36346;48.280;14.292;2023-02-03T03:41:12;4.74;;;4.74;;
50417;SDS011;36346;48.280;14.292;2023-02-03T03:43:51;4.67;;;4.67;;
50417;SDS011;36346;48.280;14.292;2023-02-03T03:46:27;4.82;;;4.82;;
50417;SDS011;36346;48.280;14.292;2023-02-03T03:49:04;5.29;;;5.29;;
50417;SDS011;36346;48.280;14.292;2023-02-03T03:51:42;5.04;;;5.04;;
50417;SDS011;36346;48.280;14.292;2023-02-03T03:54:15;5.69;;;5.69;;
50417;SDS011;36346;48.280;14.292;2023-02-03T03:56:49;5.84;;;5.84;;
50417;SDS011;36346;48.280;14.292;2023-02-03T03:59:24;5.39;;;5.39;;
50417;SDS011;36346;48.280;14.292;2023-02-03T04:01:57;5.30;;;5.30;;
50417;SDS011;36346;48.280;14.292;2023-02-03T04:04:32;4.74;;;4.74;;
50417;SDS011;36346;48.280;14.292;2023-02-03T04:07:03;5.41;;;5.41;;
50417;SDS011;36346;48.280;14.292;2023-02-03T04:09:31;4.95;;;4.95;;
50417;SDS011;36346;48.280;14.292;2023-02-03T04:12:04;5.03;;;5.03;;
50417;SDS011;36346;48.280;14.292;2023-02-03T04:14:33;4.54;;;4.54;;
50417;SDS011;36346;48.280;14.292;2023-02-03T04:17:05;4.51;;;4.51;;
50417;SDS011;36346;48.280;14.292;2023-02-03T04:19:33;5.28;;;5.28;;
50417;SDS011;36346;48.280;14.292;2023-02-03T04:22:01;10.10;;;10.04;;
50417;SDS011;36346;48.280;14.292;2023-02-03T04:24:29;4.19;;;4.19;;
50417;SDS011;36346;48.280;14.292;2023-02-03T04:27:00;4.22;;;4.22;;
50417;SDS011;36346;48.280;14.292;2023-02-03T04:29:32;4.44;;;4.44;;
50417;SDS011;36346;48.280;14.292;2023-02-03T04:32:00;4.46;;;4.46;;
50417;SDS011;36346;48.280;14.292;2023-02-03T04:34:28;4.32;;;4.32;;
50417;SDS011;36346;48.280;14.292;2023-02-03T04:36:57;4.34;;;4.34;;
50417;SDS011;36346;48.280;14.292;2023-02-03T04:39:25;4.88;;;4.88;;
50417;SDS011;36346;48.280;14.292;2023-02-03T04:41:53;4.42;;;4.42;;
50417;SDS011;36346;48.280;14.292;2023-02-03T04:44:21;4.67;;;4.67;;
50417;SDS011;36346;48.280;14.292;2023-02-03T04:46:49;4.44;;;4.44;;
50417;SDS011;36346;48.280;14.292;2023-02-03T04:49:17;4.34;;;4.34;;
50417;SDS011;36346;48.280;14.292;2023-02-03T04:51:49;4.70;;;4.70;;
50417;SDS011;36346;48.280;14.292;2023-02-03T04:54:17;4.21;;;4.21;;
50417;SDS011;36346;48.280;14.292;2023-02-03T04:56:45;4.08;;;4.08;;
50417;SDS011;36346;48.280;14.292;2023-02-03T04:59:14;4.17;;;4.17;;
50417;SDS011;36346;48.280;14.292;2023-02-03T05:01:42;4.29;;;4.29;;
50417;SDS011;36346;48.280;14.292;2023-02-03T05:04:10;4.08;;;4.08;;
50417;SDS011;36346;48.280;14.292;2023-02-03T05:07:08;3.99;;;3.99;;
50417;SDS011;36346;48.280;14.292;2023-02-03T05:09:37;4.12;;;4.12;;
50417;SDS011;36346;48.280;14.292;2023-02-03T05:12:07;4.20;;;4.20;;
50417;SDS011;36346;48.280;14.292;2023-02-03T05:14:35;3.87;;;3.87;;
50417;SDS011;36346;48.280;14.292;2023-02-03T05:17:03;3.91;;;3.91;;
50417;SDS011;36346;48.280;14.292;2023-02-03T05:19:32;4.56;;;4.56;;
50417;SDS011;36346;48.280;14.292;2023-02-03T05:22:00;4.31;;;4.31;;
50417;SDS011;36346;48.280;14.292;2023-02-03T05:24:52;4.26;;;4.26;;
50417;SDS011;36346;48.280;14.292;2023-02-03T05:27:20;4.46;;;4.46;;
50417;SDS011;36346;48.280;14.292;2023-02-03T05:29:48;4.16;;;4.16;;
50417;SDS011;36346;48.280;14.292;2023-02-03T05:32:16;4.13;;;4.13;;
50417;SDS011;36346;48.280;14.292;2023-02-03T05:34:45;4.45;;;4.45;;
50417;SDS011;36346;48.280;14.292;2023-02-03T05:37:13;4.20;;;4.20;;
50417;SDS011;36346;48.280;14.292;2023-02-03T05:39:41;4.58;;;4.58;;
50417;SDS011;36346;48.280;14.292;2023-02-03T05:42:09;4.27;;;4.27;;
50417;SDS011;36346;48.280;14.292;2023-02-03T05:44:37;5.07;;;5.07;;
50417;SDS011;36346;48.280;14.292;2023-02-03T05:47:05;5.04;;;5.04;;
50417;SDS011;36346;48.280;14.292;2023-02-03T05:49:57;5.85;;;5.85;;
50417;SDS011;36346;48.280;14.292;2023-02-03T05:52:56;5.93;;;5.93;;
50417;SDS011;36346;48.280;14.292;2023-02-03T05:55:25;5.98;;;5.98;;
50417;SDS011;36346;48.280;14.292;2023-02-03T05:58:43;6.62;;;6.62;;
50417;SDS011;36346;48.280;14.292;2023-02-03T06:01:11;6.65;;;6.65;;
50417;SDS011;36346;48.280;14.292;2023-02-03T06:03:41;6.38;;;6.38;;
50417;SDS011;36346;48.280;14.292;2023-02-03T06:06:16;6.59;;;6.59;;
50417;SDS011;36346;48.280;14.292;2023-02-03T06:08:45;6.02;;;6.02;;
50417;SDS011;36346;48.280;14.292;2023-02-03T06:11:13;6.67;;;6.67;;
50417;SDS011;36346;48.280;14.292;2023-02-03T06:13:41;6.12;;;6.12;;
50417;SDS011;36346;48.280;14.292;2023-02-03T06:16:10;5.89;;;5.89;;
50417;SDS011;36346;48.280;14.292;2023-02-03T06:18:39;5.94;;;5.94;;
50417;SDS011;36346;48.280;14.292;2023-02-03T06:21:32;4.98;;;4.98;;
50417;SDS011;36346;48.280;14.292;2023-02-03T06:24:00;4.83;;;4.83;;
50417;SDS011;36346;48.280;14.292;2023-02-03T06:26:28;4.91;;;4.91;;
50417;SDS011;36346;48.280;14.292;2023-02-03T06:28:55;4.80;;;4.80;;
50417;SDS011;36346;48.280;14.292;2023-02-03T06:31:49;4.48;;;4.48;;
50417;SDS011;36346;48.280;14.292;2023-02-03T06:34:17;4.27;;;4.27;;
50417;SDS011;36346;48.280;14.292;2023-02-03T06:36:45;4.27;;;4.27;;
50417;SDS011;36346;48.280;14.292;2023-02-03T06:39:14;4.04;;;4.04;;
50417;SDS011;36346;48.280;14.292;2023-02-03T06:41:43;4.49;;;4.49;;
50417;SDS011;36346;48.280;14.292;2023-02-03T06:44:11;4.11;;;4.11;;
50417;SDS011;36346;48.280;14.292;2023-02-03T06:46:39;3.92;;;3.92;;
50417;SDS011;36346;48.280;14.292;2023-02-03T06:49:07;4.13;;;4.13;;
50417;SDS011;36346;48.280;14.292;2023-02-03T06:51:35;6.64;;;6.63;;
50417;SDS011;36346;48.280;14.292;2023-02-03T06:54:03;4.30;;;4.29;;
50417;SDS011;36346;48.280;14.292;2023-02-03T06:56:31;3.65;;;3.65;;
50417;SDS011;36346;48.280;14.292;2023-02-03T06:59:01;3.04;;;3.03;;
50417;SDS011;36346;48.280;14.292;2023-02-03T07:01:30;2.93;;;2.93;;
50417;SDS011;36346;48.280;14.292;2023-02-03T07:03:58;2.91;;;2.91;;
50417;SDS011;36346;48.280;14.292;2023-02-03T07:06:27;2.82;;;2.82;;
50417;SDS011;36346;48.280;14.292;2023-02-03T07:08:57;2.64;;;2.64;;
50417;SDS011;36346;48.280;14.292;2023-02-03T07:11:29;2.88;;;2.88;;
50417;SDS011;36346;48.280;14.292;2023-02-03T07:13:57;2.70;;;2.70;;
50417;SDS011;36346;48.280;14.292;2023-02-03T07:16:26;2.79;;;2.79;;
50417;SDS011;36346;48.280;14.292;2023-02-03T07:18:54;2.60;;;2.60;;
50417;SDS011;36346;48.280;14.292;2023-02-03T07:21:22;2.72;;;2.72;;
50417;SDS011;36346;48.280;14.292;2023-02-03T07:23:50;2.52;;;2.52;;
50417;SDS011;36346;48.280;14.292;2023-02-03T07:26:18;2.55;;;2.55;;
50417;SDS011;36346;48.280;14.292;2023-02-03T07:28:49;2.25;;;2.25;;
50417;SDS011;36346;48.280;14.292;2023-02-03T07:31:23;2.41;;;2.41;;
50417;SDS011;36346;48.280;14.292;2023-02-03T07:33:50;2.47;;;2.46;;
50417;SDS011;36346;48.280;14.292;2023-02-03T07:36:18;2.55;;;2.55;;
50417;SDS011;36346;48.280;14.292;2023-02-03T07:38:46;2.30;;;2.28;;
50417;SDS011;36346;48.280;14.292;2023-02-03T07:41:14;2.30;;;2.30;;
50417;SDS011;36346;48.280;14.292;2023-02-03T07:43:44;2.32;;;2.32;;
50417;SDS011;36346;48.280;14.292;2023-02-03T07:46:12;2.67;;;2.67;;
50417;SDS011;36346;48.280;14.292;2023-02-03T07:48:42;2.13;;;2.13;;
50417;SDS011;36346;48.280;14.292;2023-02-03T07:51:10;2.37;;;2.37;;
50417;SDS011;36346;48.280;14.292;2023-02-03T07:53:38;2.15;;;2.15;;
50417;SDS011;36346;48.280;14.292;2023-02-03T07:56:57;5.53;;;5.53;;
50417;SDS011;36346;48.280;14.292;2023-02-03T07:59:25;3.63;;;3.61;;
50417;SDS011;36346;48.280;14.292;2023-02-03T08:01:55;2.56;;;2.53;;
50417;SDS011;36346;48.280;14.292;2023-02-03T08:04:23;2.54;;;2.52;;
50417;SDS011;36346;48.280;14.292;2023-02-03T08:06:52;2.41;;;2.39;;
50417;SDS011;36346;48.280;14.292;2023-02-03T08:09:21;2.36;;;2.35;;
50417;SDS011;36346;48.280;14.292;2023-02-03T08:11:49;2.44;;;2.42;;
50417;SDS011;36346;48.280;14.292;2023-02-03T08:14:17;2.09;;;2.07;;
50417;SDS011;36346;48.280;14.292;2023-02-03T08:16:46;2.16;;;2.14;;
50417;SDS011;36346;48.280;14.292;2023-02-03T08:19:14;2.10;;;2.08;;
50417;SDS011;36346;48.280;14.292;2023-02-03T08:21:42;2.14;;;2.12;;
50417;SDS011;36346;48.280;14.292;2023-02-03T08:24:10;2.06;;;2.06;;
50417;SDS011;36346;48.280;14.292;2023-02-03T08:26:38;2.19;;;2.19;;
50417;SDS011;36346;48.280;14.292;2023-02-03T08:29:06;2.02;;;2.02;;
50417;SDS011;36346;48.280;14.292;2023-02-03T08:31:35;2.23;;;2.23;;
50417;SDS011;36346;48.280;14.292;2023-02-03T08:34:04;2.09;;;2.09;;
50417;SDS011;36346;48.280;14.292;2023-02-03T08:36:33;2.02;;;2.00;;
50417;SDS011;36346;48.280;14.292;2023-02-03T08:39:03;1.97;;;1.95;;
50417;SDS011;36346;48.280;14.292;2023-02-03T08:41:31;2.01;;;2.01;;
50417;SDS011;36346;48.280;14.292;2023-02-03T08:43:59;2.16;;;2.14;;
50417;SDS011;36346;48.280;14.292;2023-02-03T08:46:29;2.11;;;2.09;;
50417;SDS011;36346;48.280;14.292;2023-02-03T08:48:57;1.85;;;1.84;;
50417;SDS011;36346;48.280;14.292;2023-02-03T08:51:26;1.97;;;1.97;;
50417;SDS011;36346;48.280;14.292;2023-02-03T08:53:54;2.07;;;2.06;;
50417;SDS011;36346;48.280;14.292;2023-02-03T08:56:22;2.00;;;1.99;;
50417;SDS011;36346;48.280;14.292;2023-02-03T08:58:55;1.94;;;1.92;;
50417;SDS011;36346;48.280;14.292;2023-02-03T09:01:23;2.31;;;2.29;;
50417;SDS011;36346;48.280;14.292;2023-02-03T09:03:51;1.89;;;1.88;;
50417;SDS011;36346;48.280;14.292;2023-02-03T09:06:21;2.57;;;2.53;;
50417;SDS011;36346;48.280;14.292;2023-02-03T09:08:52;2.14;;;2.11;;
50417;SDS011;36346;48.280;14.292;2023-02-03T09:11:20;2.54;;;2.48;;
50417;SDS011;36346;48.280;14.292;2023-02-03T09:13:48;2.09;;;2.01;;
50417;SDS011;36346;48.280;14.292;2023-02-03T09:16:17;2.05;;;1.98;;
50417;SDS011;36346;48.280;14.292;2023-02-03T09:18:47;1.72;;;1.70;;
50417;SDS011;36346;48.280;14.292;2023-02-03T09:21:16;1.92;;;1.90;;
50417;SDS011;36346;48.280;14.292;2023-02-03T09:24:02;1.55;;;1.54;;
50417;SDS011;36346;48.280;14.292;2023-02-03T09:26:30;1.82;;;1.80;;
50417;SDS011;36346;48.280;14.292;2023-02-03T09:28:58;2.08;;;2.05;;
50417;SDS011;36346;48.280;14.292;2023-02-03T09:31:26;1.79;;;1.77;;
50417;SDS011;36346;48.280;14.292;2023-02-03T09:33:54;1.62;;;1.60;;
50417;SDS011;36346;48.280;14.292;2023-02-03T09:36:22;1.76;;;1.71;;
50417;SDS011;36346;48.280;14.292;2023-02-03T09:38:50;1.64;;;1.59;;
50417;SDS011;36346;48.280;14.292;2023-02-03T09:46:47;1.61;;;1.58;;
50417;SDS011;36346;48.280;14.292;2023-02-03T09:54:50;1.71;;;1.64;;
50417;SDS011;36346;48.280;14.292;2023-02-03T09:57:24;1.75;;;1.68;;
50417;SDS011;36346;48.280;14.292;2023-02-03T09:59:55;1.76;;;1.72;;
50417;SDS011;36346;48.280;14.292;2023-02-03T10:05:21;3.96;;;3.90;;
50417;SDS011;36346;48.280;14.292;2023-02-03T10:10:31;1.67;;;1.66;;
50417;SDS011;36346;48.280;14.292;2023-02-03T10:13:18;1.51;;;1.49;;
50417;SDS011;36346;48.280;14.292;2023-02-03T10:18:56;1.72;;;1.70;;
50417;SDS011;36346;48.280;14.292;2023-02-03T10:21:32;1.54;;;1.53;;
50417;SDS011;36346;48.280;14.292;2023-02-03T10:24:05;1.36;;;1.34;;
50417;SDS011;36346;48.280;14.292;2023-02-03T10:27:15;1.96;;;1.92;;
50417;SDS011;36346;48.280;14.292;2023-02-03T10:30:24;1.41;;;1.37;;
50417;SDS011;36346;48.280;14.292;2023-02-03T10:32:50;1.60;;;1.57;;
50417;SDS011;36346;48.280;14.292;2023-02-03T10:35:25;1.57;;;1.55;;
50417;SDS011;36346;48.280;14.292;2023-02-03T10:38:02;1.69;;;1.68;;
50417;SDS011;36346;48.280;14.292;2023-02-03T10:40:37;1.80;;;1.79;;
50417;SDS011;36346;48.280;14.292;2023-02-03T10:43:07;1.79;;;1.77;;
50417;SDS011;36346;48.280;14.292;2023-02-03T10:46:20;1.79;;;1.77;;
50417;SDS011;36346;48.280;14.292;2023-02-03T10:48:56;1.76;;;1.75;;
50417;SDS011;36346;48.280;14.292;2023-02-03T10:51:25;1.79;;;1.78;;
50417;SDS011;36346;48.280;14.292;2023-02-03T10:53:58;1.58;;;1.56;;
50417;SDS011;36346;48.280;14.292;2023-02-03T10:58:59;1.56;;;1.55;;
50417;SDS011;36346;48.280;14.292;2023-02-03T11:01:43;1.82;;;1.81;;
50417;SDS011;36346;48.280;14.292;2023-02-03T11:04:43;1.81;;;1.79;;
50417;SDS011;36346;48.280;14.292;2023-02-03T11:07:21;1.65;;;1.64;;
50417;SDS011;36346;48.280;14.292;2023-02-03T11:10:49;1.78;;;1.77;;
50417;SDS011;36346;48.280;14.292;2023-02-03T11:13:19;1.82;;;1.80;;
50417;SDS011;36346;48.280;14.292;2023-02-03T11:21:07;2.87;;;2.76;;
50417;SDS011;36346;48.280;14.292;2023-02-03T11:24:23;2.19;;;2.14;;
50417;SDS011;36346;48.280;14.292;2023-02-03T11:26:59;1.85;;;1.82;;
50417;SDS011;36346;48.280;14.292;2023-02-03T11:29:34;1.62;;;1.59;;
50417;SDS011;36346;48.280;14.292;2023-02-03T11:32:12;1.63;;;1.60;;
50417;SDS011;36346;48.280;14.292;2023-02-03T11:35:13;2.12;;;2.09;;
50417;SDS011;36346;48.280;14.292;2023-02-03T11:37:49;5.51;;;5.44;;
50417;SDS011;36346;48.280;14.292;2023-02-03T11:47:55;1.75;;;1.74;;
50417;SDS011;36346;48.280;14.292;2023-02-03T11:53:11;1.87;;;1.84;;
50417;SDS011;36346;48.280;14.292;2023-02-03T11:56:08;1.90;;;1.87;;
50417;SDS011;36346;48.280;14.292;2023-02-03T12:02:24;1.87;;;1.83;;
50417;SDS011;36346;48.280;14.292;2023-02-03T12:17:07;1.80;;;1.78;;
50417;SDS011;36346;48.280;14.292;2023-02-03T12:19:38;1.96;;;1.95;;
50417;SDS011;36346;48.280;14.292;2023-02-03T12:25:36;1.89;;;1.88;;
50417;SDS011;36346;48.280;14.292;2023-02-03T12:31:07;2.04;;;2.03;;
50417;SDS011;36346;48.280;14.292;2023-02-03T12:33:40;2.04;;;2.02;;
50417;SDS011;36346;48.280;14.292;2023-02-03T12:36:21;1.83;;;1.82;;
50417;SDS011;36346;48.280;14.292;2023-02-03T12:38:55;1.97;;;1.96;;
50417;SDS011;36346;48.280;14.292;2023-02-03T12:41:57;2.01;;;1.99;;
50417;SDS011;36346;48.280;14.292;2023-02-03T12:44:32;1.95;;;1.94;;
50417;SDS011;36346;48.280;14.292;2023-02-03T12:47:17;1.92;;;1.92;;
50417;SDS011;36346;48.280;14.292;2023-02-03T12:50:02;2.07;;;2.06;;
50417;SDS011;36346;48.280;14.292;2023-02-03T12:52:36;3.91;;;3.90;;
50417;SDS011;36346;48.280;14.292;2023-02-03T12:58:12;2.24;;;2.23;;
50417;SDS011;36346;48.280;14.292;2023-02-03T13:00:59;2.16;;;2.15;;
50417;SDS011;36346;48.280;14.292;2023-02-03T13:03:40;2.30;;;2.29;;
50417;SDS011;36346;48.280;14.292;2023-02-03T13:06:40;1.89;;;1.89;;
50417;SDS011;36346;48.280;14.292;2023-02-03T13:17:47;1.75;;;1.73;;
50417;SDS011;36346;48.280;14.292;2023-02-03T13:20:23;1.80;;;1.78;;
50417;SDS011;36346;48.280;14.292;2023-02-03T13:23:19;1.98;;;1.96;;
50417;SDS011;36346;48.280;14.292;2023-02-03T13:28:44;2.77;;;2.75;;
50417;SDS011;36346;48.280;14.292;2023-02-03T13:43:18;3.06;;;3.04;;
50417;SDS011;36346;48.280;14.292;2023-02-03T13:46:07;2.78;;;2.76;;
50417;SDS011;36346;48.280;14.292;2023-02-03T13:48:56;2.50;;;2.47;;
50417;SDS011;36346;48.280;14.292;2023-02-03T13:51:32;1.82;;;1.80;;
50417;SDS011;36346;48.280;14.292;2023-02-03T13:54:07;1.73;;;1.71;;
50417;SDS011;36346;48.280;14.292;2023-02-03T13:56:51;1.60;;;1.57;;
50417;SDS011;36346;48.280;14.292;2023-02-03T14:04:58;1.95;;;1.93;;
50417;SDS011;36346;48.280;14.292;2023-02-03T14:07:32;2.04;;;2.03;;
50417;SDS011;36346;48.280;14.292;2023-02-03T14:17:59;2.31;;;2.31;;
50417;SDS011;36346;48.280;14.292;2023-02-03T14:20:47;1.95;;;1.95;;
50417;SDS011;36346;48.280;14.292;2023-02-03T14:23:20;2.01;;;2.01;;
50417;SDS011;36346;48.280;14.292;2023-02-03T14:25:56;1.66;;;1.66;;
50417;SDS011;36346;48.280;14.292;2023-02-03T14:28:52;1.85;;;1.85;;
50417;SDS011;36346;48.280;14.292;2023-02-03T14:31:21;1.86;;;1.85;;
50417;SDS011;36346;48.280;14.292;2023-02-03T14:36:41;2.08;;;2.08;;
50417;SDS011;36346;48.280;14.292;2023-02-03T14:45:02;2.29;;;2.27;;
50417;SDS011;36346;48.280;14.292;2023-02-03T14:59:56;1.82;;;1.81;;
50417;SDS011;36346;48.280;14.292;2023-02-03T15:03:13;2.09;;;2.08;;
50417;SDS011;36346;48.280;14.292;2023-02-03T15:05:35;1.82;;;1.81;;
50417;SDS011;36346;48.280;14.292;2023-02-03T15:11:02;1.69;;;1.68;;
50417;SDS011;36346;48.280;14.292;2023-02-03T15:14:13;1.89;;;1.87;;
50417;SDS011;36346;48.280;14.292;2023-02-03T15:16:52;1.79;;;1.77;;
50417;SDS011;36346;48.280;14.292;2023-02-03T15:19:26;1.98;;;1.96;;
50417;SDS011;36346;48.280;14.292;2023-02-03T15:21:57;1.63;;;1.62;;
50417;SDS011;36346;48.280;14.292;2023-02-03T15:24:33;1.61;;;1.60;;
50417;SDS011;36346;48.280;14.292;2023-02-03T15:27:03;1.49;;;1.48;;
50417;SDS011;36346;48.280;14.292;2023-02-03T15:29:32;1.44;;;1.43;;
50417;SDS011;36346;48.280;14.292;2023-02-03T15:32:05;1.45;;;1.44;;
50417;SDS011;36346;48.280;14.292;2023-02-03T15:34:46;1.19;;;1.18;;
50417;SDS011;36346;48.280;14.292;2023-02-03T15:42:40;1.96;;;1.94;;
50417;SDS011;36346;48.280;14.292;2023-02-03T15:45:54;1.89;;;1.88;;
50417;SDS011;36346;48.280;14.292;2023-02-03T15:48:37;1.69;;;1.68;;
50417;SDS011;36346;48.280;14.292;2023-02-03T15:54:26;1.67;;;1.67;;
50417;SDS011;36346;48.280;14.292;2023-02-03T15:57:10;1.42;;;1.41;;
50417;SDS011;36346;48.280;14.292;2023-02-03T16:02:48;1.81;;;1.80;;
50417;SDS011;36346;48.280;14.292;2023-02-03T16:05:25;1.74;;;1.73;;
50417;SDS011;36346;48.280;14.292;2023-02-03T16:08:23;1.52;;;1.52;;
50417;SDS011;36346;48.280;14.292;2023-02-03T16:13:55;1.72;;;1.72;;
50417;SDS011;36346;48.280;14.292;2023-02-03T16:16:52;1.83;;;1.82;;
50417;SDS011;36346;48.280;14.292;2023-02-03T16:19:32;1.74;;;1.74;;
50417;SDS011;36346;48.280;14.292;2023-02-03T16:25:17;2.45;;;2.44;;
50417;SDS011;36346;48.280;14.292;2023-02-03T16:28:10;1.53;;;1.53;;
50417;SDS011;36346;48.280;14.292;2023-02-03T16:31:02;1.62;;;1.62;;
50417;SDS011;36346;48.280;14.292;2023-02-03T16:34:04;1.60;;;1.60;;
50417;SDS011;36346;48.280;14.292;2023-02-03T16:37:00;1.72;;;1.71;;
50417;SDS011;36346;48.280;14.292;2023-02-03T16:39:49;1.58;;;1.58;;
50417;SDS011;36346;48.280;14.292;2023-02-03T16:42:37;1.87;;;1.87;;
50417;SDS011;36346;48.280;14.292;2023-02-03T16:45:25;1.94;;;1.94;;
50417;SDS011;36346;48.280;14.292;2023-02-03T16:48:14;1.75;;;1.75;;
50417;SDS011;36346;48.280;14.292;2023-02-03T16:51:02;1.70;;;1.70;;
50417;SDS011;36346;48.280;14.292;2023-02-03T16:53:34;1.74;;;1.74;;
50417;SDS011;36346;48.280;14.292;2023-02-03T16:56:03;1.82;;;1.82;;
50417;SDS011;36346;48.280;14.292;2023-02-03T16:58:31;1.83;;;1.83;;
50417;SDS011;36346;48.280;14.292;2023-02-03T17:01:03;1.84;;;1.84;;
50417;SDS011;36346;48.280;14.292;2023-02-03T17:03:33;1.79;;;1.79;;
50417;SDS011;36346;48.280;14.292;2023-02-03T17:06:08;1.96;;;1.96;;
50417;SDS011;36346;48.280;14.292;2023-02-03T17:08:39;1.83;;;1.82;;
50417;SDS011;36346;48.280;14.292;2023-02-03T17:11:13;1.68;;;1.67;;
50417;SDS011;36346;48.280;14.292;2023-02-03T17:13:43;1.76;;;1.75;;
50417;SDS011;36346;48.280;14.292;2023-02-03T17:16:15;1.79;;;1.79;;
50417;SDS011;36346;48.280;14.292;2023-02-03T17:18:49;1.90;;;1.90;;
50417;SDS011;36346;48.280;14.292;2023-02-03T17:21:26;1.65;;;1.65;;
50417;SDS011;36346;48.280;14.292;2023-02-03T17:23:56;1.60;;;1.60;;
50417;SDS011;36346;48.280;14.292;2023-02-03T17:26:25;1.67;;;1.67;;
50417;SDS011;36346;48.280;14.292;2023-02-03T17:28:53;2.14;;;2.14;;
50417;SDS011;36346;48.280;14.292;2023-02-03T17:31:21;1.59;;;1.59;;
50417;SDS011;36346;48.280;14.292;2023-02-03T17:33:49;1.97;;;1.97;;
50417;SDS011;36346;48.280;14.292;2023-02-03T17:36:18;1.80;;;1.80;;
50417;SDS011;36346;48.280;14.292;2023-02-03T17:41:35;1.69;;;1.69;;
50417;SDS011;36346;48.280;14.292;2023-02-03T17:44:20;1.78;;;1.78;;
50417;SDS011;36346;48.280;14.292;2023-02-03T17:47:06;1.89;;;1.89;;
50417;SDS011;36346;48.280;14.292;2023-02-03T17:49:51;1.80;;;1.80;;
50417;SDS011;36346;48.280;14.292;2023-02-03T17:52:36;2.04;;;2.04;;
50417;SDS011;36346;48.280;14.292;2023-02-03T17:55:21;2.18;;;2.18;;
50417;SDS011;36346;48.280;14.292;2023-02-03T17:57:50;2.33;;;2.33;;
50417;SDS011;36346;48.280;14.292;2023-02-03T18:00:18;2.36;;;2.35;;
50417;SDS011;36346;48.280;14.292;2023-02-03T18:02:51;2.62;;;2.62;;
50417;SDS011;36346;48.280;14.292;2023-02-03T18:05:19;2.39;;;2.39;;
50417;SDS011;36346;48.280;14.292;2023-02-03T18:07:47;3.48;;;3.48;;